createdAt,value
2017-10-30T00:00:55.442Z,97693.77
2017-10-30T00:03:21.876Z,97730.63
2017-10-30T00:05:49.027Z,97716.61
2017-10-30T00:08:15.463Z,97713.14
2017-10-30T00:10:41.795Z,97729.34
2017-10-30T00:13:08.229Z,97730.84
2017-10-30T00:15:34.703Z,97731.89
2017-10-30T00:18:01.172Z,97737.16
2017-10-30T00:20:27.640Z,97737.02
2017-10-30T00:22:54.803Z,97738.70
2017-10-30T00:25:21.198Z,97728.02
2017-10-30T00:27:47.659Z,97710.22
2017-10-30T00:30:14.093Z,97736.09
2017-10-30T00:32:40.537Z,97729.19
2017-10-30T00:35:06.969Z,97753.47
2017-10-30T00:37:33.397Z,97718.91
2017-10-30T00:40:00.650Z,97723.32
2017-10-30T00:42:27.095Z,97715.67
2017-10-30T00:44:53.528Z,97710.83
2017-10-30T00:47:19.964Z,97715.66
2017-10-30T00:49:46.419Z,97729.81
2017-10-30T00:52:12.945Z,97699.31
2017-10-30T00:54:39.260Z,97703.98
2017-10-30T00:57:06.584Z,97727.32
2017-10-30T00:59:33.049Z,97725.25
2017-10-30T01:01:59.491Z,97719.16
2017-10-30T01:04:25.927Z,97712.98
2017-10-30T01:06:52.354Z,97738.17
2017-10-30T01:09:18.789Z,97742.44
2017-10-30T01:11:45.158Z,97735.30
2017-10-30T01:14:12.384Z,97762.06
2017-10-30T01:16:38.813Z,97735.69
2017-10-30T01:19:05.183Z,97751.70
2017-10-30T01:21:31.577Z,97733.61
2017-10-30T01:23:58.012Z,97745.97
2017-10-30T01:26:24.452Z,97737.91
2017-10-30T01:28:50.881Z,97730.56
2017-10-30T01:31:18.125Z,97740.03
2017-10-30T01:33:44.569Z,97723.48
2017-10-30T01:36:11.004Z,97749.92
2017-10-30T01:38:37.450Z,97753.25
2017-10-30T01:41:03.873Z,97754.34
2017-10-30T01:43:30.318Z,97760.17
2017-10-30T01:45:56.846Z,97763.05
2017-10-30T01:48:23.895Z,97767.78
2017-10-30T01:50:50.338Z,97813.63
2017-10-30T01:53:16.764Z,97789.48
2017-10-30T01:55:43.199Z,97789.71
2017-10-30T01:58:09.641Z,97801.84
2017-10-30T02:00:36.069Z,97803.48
2017-10-30T02:03:02.509Z,97820.03
2017-10-30T02:05:29.661Z,97833.45
2017-10-30T02:07:56.097Z,97841.44
2017-10-30T02:10:22.635Z,97844.22
2017-10-30T02:12:49.061Z,97841.30
2017-10-30T02:15:15.496Z,97858.33
2017-10-30T02:17:41.940Z,97868.52
2017-10-30T02:20:08.366Z,97861.95
2017-10-30T02:22:35.452Z,97842.29
2017-10-30T02:25:01.801Z,97857.81
2017-10-30T02:27:28.187Z,97865.25
2017-10-30T02:29:54.639Z,97865.30
2017-10-30T02:32:20.988Z,97873.73
2017-10-30T02:34:47.315Z,97869.91
2017-10-30T02:37:13.661Z,97866.05
2017-10-30T02:39:40.969Z,97870.95
2017-10-30T02:42:07.404Z,97871.11
2017-10-30T02:44:33.838Z,97888.73
2017-10-30T02:47:00.376Z,97893.27
2017-10-30T02:49:26.820Z,97895.97
2017-10-30T02:51:53.184Z,97891.38
2017-10-30T02:54:19.577Z,97896.13
2017-10-30T02:56:46.726Z,97905.20
2017-10-30T02:59:13.061Z,97913.65
2017-10-30T03:01:39.496Z,97921.03
2017-10-30T03:04:05.828Z,97914.63
2017-10-30T03:06:32.263Z,97932.76
2017-10-30T03:08:58.698Z,97931.70
2017-10-30T03:11:25.030Z,97923.96
2017-10-30T03:13:52.244Z,97934.48
2017-10-30T03:16:18.685Z,97908.95
2017-10-30T03:18:45.129Z,97930.11
2017-10-30T03:21:11.580Z,97936.52
2017-10-30T03:23:38.025Z,97944.06
2017-10-30T03:26:04.400Z,97949.84
2017-10-30T03:28:30.747Z,97960.06
2017-10-30T03:30:58.113Z,97941.98
2017-10-30T03:33:24.601Z,97969.23
2017-10-30T03:35:51.017Z,97981.05
2017-10-30T03:38:17.452Z,97981.11
2017-10-30T03:40:43.896Z,97976.20
2017-10-30T03:43:10.431Z,97979.38
2017-10-30T03:45:36.857Z,97973.25
2017-10-30T03:48:03.982Z,97963.16
2017-10-30T03:50:30.425Z,97978.06
2017-10-30T03:52:56.887Z,97979.62
2017-10-30T03:55:23.321Z,97988.75
2017-10-30T03:57:49.748Z,97989.97
2017-10-30T04:00:16.190Z,97988.37
2017-10-30T04:02:42.515Z,97978.34
2017-10-30T04:05:09.853Z,97991.78
2017-10-30T04:07:36.295Z,97991.67
2017-10-30T04:10:02.740Z,97995.28
2017-10-30T04:12:29.110Z,97998.53
2017-10-30T04:14:55.636Z,98008.88
2017-10-30T04:17:22.043Z,97994.13
2017-10-30T04:19:48.487Z,97990.41
2017-10-30T04:22:15.742Z,97991.13
2017-10-30T04:24:42.167Z,98000.27
2017-10-30T04:27:08.611Z,98000.11
2017-10-30T04:29:35.036Z,98000.80
2017-10-30T04:32:01.478Z,97963.81
2017-10-30T04:34:27.909Z,97991.74
2017-10-30T04:36:54.349Z,97998.37
2017-10-30T04:39:21.517Z,97999.38
2017-10-30T04:41:48.038Z,98004.36
2017-10-30T04:44:14.575Z,98003.39
2017-10-30T04:46:41.011Z,98009.06
2017-10-30T04:49:07.444Z,98006.63
2017-10-30T04:51:33.870Z,98009.91
2017-10-30T04:54:00.325Z,98020.06
2017-10-30T04:56:27.447Z,98006.86
2017-10-30T04:58:53.890Z,98010.31
2017-10-30T05:01:20.332Z,98011.70
2017-10-30T05:03:46.761Z,98005.44
2017-10-30T05:06:13.197Z,98013.22
2017-10-30T05:08:39.566Z,98023.77
2017-10-30T05:11:05.963Z,98021.25
2017-10-30T05:13:33.123Z,98028.11
2017-10-30T05:15:59.549Z,98042.44
2017-10-30T05:18:25.993Z,98042.23
2017-10-30T05:20:52.427Z,98042.22
2017-10-30T05:23:18.853Z,97966.25
2017-10-30T05:25:45.288Z,98046.27
2017-10-30T05:28:11.732Z,98078.64
2017-10-30T05:30:38.772Z,98066.58
2017-10-30T05:33:05.175Z,98079.05
2017-10-30T05:35:31.646Z,98075.53
2017-10-30T05:37:58.095Z,98104.03
2017-10-30T05:40:24.496Z,98082.17
2017-10-30T05:42:50.945Z,98104.18
2017-10-30T05:45:17.401Z,98104.58
2017-10-30T05:47:44.540Z,98142.50
2017-10-30T05:50:10.966Z,98122.41
2017-10-30T05:52:37.299Z,98141.53
2017-10-30T05:55:03.734Z,98141.40
2017-10-30T05:57:30.271Z,98148.34
2017-10-30T05:59:56.713Z,98151.08
2017-10-30T06:02:23.142Z,98169.36
2017-10-30T06:04:50.292Z,98159.59
2017-10-30T06:07:16.727Z,98147.23
2017-10-30T06:09:43.161Z,98177.83
2017-10-30T06:12:09.596Z,98164.45
2017-10-30T06:14:36.338Z,98178.38
2017-10-30T06:17:02.777Z,98203.86
2017-10-30T06:19:29.161Z,98192.48
2017-10-30T06:21:55.641Z,98203.42
2017-10-30T06:24:22.043Z,98212.97
2017-10-30T06:26:48.511Z,98210.50
2017-10-30T06:29:14.951Z,98202.30
2017-10-30T06:31:41.493Z,98203.53
2017-10-30T06:34:08.122Z,98213.88
2017-10-30T06:36:34.702Z,98221.09
2017-10-30T06:39:01.243Z,98235.70
2017-10-30T06:41:27.640Z,98239.48
2017-10-30T06:43:54.003Z,98228.78
2017-10-30T06:46:21.525Z,98237.71
2017-10-30T06:48:47.967Z,98280.70
2017-10-30T06:51:14.402Z,98237.02
2017-10-30T06:53:41.349Z,98263.52
2017-10-30T06:56:07.787Z,98255.36
2017-10-30T06:58:34.156Z,98262.06
2017-10-30T07:01:00.672Z,98266.54
2017-10-30T07:03:27.086Z,98281.20
2017-10-30T07:05:53.514Z,98284.21
2017-10-30T07:08:19.848Z,98294.76
2017-10-30T07:10:46.282Z,98353.97
2017-10-30T07:13:12.716Z,98302.48
2017-10-30T07:15:39.152Z,98305.08
2017-10-30T07:18:05.586Z,98308.17
2017-10-30T07:20:32.014Z,98319.52
2017-10-30T07:22:58.566Z,98317.41
2017-10-30T07:25:24.993Z,98335.00
2017-10-30T07:27:51.738Z,98329.02
2017-10-30T07:30:18.110Z,98349.61
2017-10-30T07:32:44.543Z,98329.52
2017-10-30T07:35:10.872Z,98339.50
2017-10-30T07:37:37.268Z,98335.93
2017-10-30T07:40:05.396Z,98334.56
2017-10-30T07:42:32.399Z,98332.53
2017-10-30T07:44:58.969Z,98367.52
2017-10-30T07:47:25.362Z,98369.10
2017-10-30T07:49:51.802Z,98400.42
2017-10-30T07:52:18.334Z,98369.17
2017-10-30T07:54:44.786Z,98370.66
2017-10-30T07:57:11.336Z,98377.45
2017-10-30T07:59:38.058Z,98385.37
2017-10-30T08:02:04.565Z,98387.25
2017-10-30T08:04:31.226Z,98390.78
2017-10-30T08:06:58.070Z,98400.78
2017-10-30T08:09:24.617Z,98387.95
2017-10-30T08:11:51.157Z,98380.22
2017-10-30T08:14:17.889Z,98406.66
2017-10-30T08:16:44.323Z,98398.59
2017-10-30T08:19:10.860Z,98413.73
2017-10-30T08:21:37.497Z,98408.89
2017-10-30T08:24:03.869Z,98401.14
2017-10-30T08:26:30.263Z,98417.55
2017-10-30T08:28:57.005Z,98421.73
2017-10-30T08:31:23.542Z,98426.95
2017-10-30T08:33:50.377Z,98447.67
2017-10-30T08:36:17.128Z,98458.29
2017-10-30T08:38:43.563Z,98450.73
2017-10-30T08:41:10.067Z,98476.16
2017-10-30T08:43:36.895Z,98462.19
2017-10-30T08:46:03.388Z,98451.34
2017-10-30T08:48:29.813Z,98464.34
2017-10-30T08:50:56.663Z,98474.95
2017-10-30T08:53:23.267Z,98465.36
2017-10-30T08:55:49.631Z,98468.25
2017-10-30T08:58:16.475Z,98469.52
2017-10-30T09:00:43.020Z,98465.00
2017-10-30T09:03:09.344Z,98538.92
2017-10-30T09:05:36.706Z,98482.89
2017-10-30T09:08:03.349Z,98486.27
2017-10-30T09:10:29.886Z,98485.27
2017-10-30T09:12:56.311Z,98495.62
2017-10-30T09:15:23.332Z,98512.25
2017-10-30T09:17:49.795Z,98494.84
2017-10-30T09:20:16.231Z,98489.23
2017-10-30T09:22:43.187Z,98482.69
2017-10-30T09:25:09.876Z,98496.69
2017-10-30T09:27:36.295Z,98498.03
2017-10-30T09:30:02.862Z,98500.13
2017-10-30T09:32:29.565Z,98496.95
2017-10-30T09:34:56.042Z,98514.54
2017-10-30T09:37:22.511Z,98518.03
2017-10-30T09:39:49.142Z,98519.56
2017-10-30T09:42:15.584Z,98530.11
2017-10-30T09:44:42.013Z,98498.19
2017-10-30T09:47:09.163Z,98502.86
2017-10-30T09:49:35.709Z,98525.34
2017-10-30T09:52:02.134Z,98510.98
2017-10-30T09:54:29.226Z,98517.58
2017-10-30T09:56:55.721Z,98513.88
2017-10-30T09:59:22.165Z,98529.37
2017-10-30T10:01:49.012Z,98526.20
2017-10-30T10:04:15.442Z,98516.91
2017-10-30T10:06:41.880Z,98520.11
2017-10-30T10:09:08.406Z,98524.19
2017-10-30T10:11:34.882Z,98525.54
2017-10-30T10:14:01.371Z,98509.39
2017-10-30T10:16:28.119Z,98513.20
2017-10-30T10:18:54.555Z,98514.49
2017-10-30T10:21:21.111Z,98514.37
2017-10-30T10:23:47.731Z,98517.38
2017-10-30T10:26:14.166Z,98530.22
2017-10-30T10:28:40.537Z,98525.59
2017-10-30T10:31:07.252Z,98532.53
2017-10-30T10:33:33.683Z,98519.57
2017-10-30T10:36:00.048Z,98537.89
2017-10-30T10:38:27.056Z,98514.45
2017-10-30T10:40:53.593Z,98536.87
2017-10-30T10:43:20.139Z,98550.97
2017-10-30T10:45:46.974Z,98538.89
2017-10-30T10:48:13.415Z,98545.59
2017-10-30T10:50:39.924Z,98562.80
2017-10-30T10:53:06.791Z,98556.28
2017-10-30T10:55:33.332Z,98535.70
2017-10-30T10:57:59.712Z,98554.58
2017-10-30T11:00:26.300Z,98554.23
2017-10-30T11:02:52.743Z,98551.42
2017-10-30T11:05:19.152Z,98566.38
2017-10-30T11:07:46.116Z,98555.98
2017-10-30T11:10:12.653Z,98559.87
2017-10-30T11:12:39.098Z,98561.23
2017-10-30T11:15:05.919Z,98569.48
2017-10-30T11:17:32.370Z,98577.75
2017-10-30T11:19:58.809Z,98570.36
2017-10-30T11:22:25.522Z,98577.34
2017-10-30T11:24:51.875Z,98570.80
2017-10-30T11:27:18.318Z,98548.08
2017-10-30T11:29:44.745Z,98597.62
2017-10-30T11:32:11.595Z,98557.19
2017-10-30T11:34:38.044Z,98602.06
2017-10-30T11:37:04.459Z,98610.06
2017-10-30T11:39:30.915Z,98609.17
2017-10-30T11:41:57.330Z,98609.09
2017-10-30T11:44:23.763Z,98610.96
2017-10-30T11:46:50.194Z,98602.84
2017-10-30T11:49:17.044Z,98614.52
2017-10-30T11:51:43.444Z,98703.80
2017-10-30T11:54:09.897Z,98616.97
2017-10-30T11:56:36.347Z,98644.17
2017-10-30T11:59:02.754Z,98620.59
2017-10-30T12:01:29.198Z,98650.95
2017-10-30T12:03:55.864Z,98625.75
2017-10-30T12:06:22.364Z,98625.38
2017-10-30T12:08:48.827Z,98640.55
2017-10-30T12:11:15.444Z,98634.83
2017-10-30T12:13:41.921Z,98635.39
2017-10-30T12:16:08.336Z,98640.89
2017-10-30T12:18:34.984Z,98628.41
2017-10-30T12:21:01.789Z,98624.45
2017-10-30T12:23:28.228Z,98628.02
2017-10-30T12:25:54.689Z,98630.45
2017-10-30T12:28:21.159Z,98638.17
2017-10-30T12:30:47.558Z,98632.80
2017-10-30T12:33:14.015Z,98628.73
2017-10-30T12:35:40.542Z,98630.14
2017-10-30T12:38:07.099Z,98648.43
2017-10-30T12:40:34.009Z,98653.63
2017-10-30T12:43:00.383Z,98643.52
2017-10-30T12:45:26.895Z,98624.58
2017-10-30T12:47:53.532Z,98653.42
2017-10-30T12:50:20.073Z,98637.98
2017-10-30T12:52:46.495Z,98650.91
2017-10-30T12:55:13.342Z,98654.96
2017-10-30T12:57:39.912Z,98655.28
2017-10-30T13:00:06.423Z,98659.98
2017-10-30T13:02:33.295Z,98671.12
2017-10-30T13:04:59.803Z,98657.44
2017-10-30T13:07:26.332Z,98653.19
2017-10-30T13:09:53.486Z,98683.10
2017-10-30T13:12:19.838Z,98680.13
2017-10-30T13:14:46.356Z,98694.17
2017-10-30T13:17:13.006Z,98679.21
2017-10-30T13:19:39.545Z,98704.39
2017-10-30T13:22:06.045Z,98704.39
2017-10-30T13:24:33.125Z,98718.27
2017-10-30T13:26:59.556Z,98729.25
2017-10-30T13:29:25.995Z,98716.01
2017-10-30T13:31:52.932Z,98720.84
2017-10-30T13:34:19.386Z,98737.89
2017-10-30T13:36:45.905Z,98726.93
2017-10-30T13:39:12.851Z,98734.50
2017-10-30T13:41:39.218Z,98729.24
2017-10-30T13:44:05.618Z,98736.88
2017-10-30T13:46:32.470Z,98757.77
2017-10-30T13:48:58.897Z,98752.18
2017-10-30T13:51:25.340Z,98745.87
2017-10-30T13:53:52.008Z,98748.44
2017-10-30T13:56:18.420Z,98754.66
2017-10-30T13:58:44.912Z,98783.47
2017-10-30T14:01:11.357Z,98762.56
2017-10-30T14:03:38.235Z,98767.89
2017-10-30T14:06:04.658Z,98767.84
2017-10-30T14:08:31.090Z,98773.30
2017-10-30T14:10:57.732Z,98800.23
2017-10-30T14:13:24.277Z,98786.96
2017-10-30T14:15:50.833Z,98791.45
2017-10-30T14:18:17.649Z,98796.34
2017-10-30T14:20:44.213Z,98787.36
2017-10-30T14:23:10.705Z,98788.56
2017-10-30T14:25:37.365Z,98796.06
2017-10-30T14:28:03.797Z,98796.30
2017-10-30T14:30:30.233Z,98801.14
2017-10-30T14:32:56.987Z,98807.02
2017-10-30T14:35:23.447Z,98804.81
2017-10-30T14:37:49.946Z,98795.17
2017-10-30T14:40:16.315Z,98801.05
2017-10-30T14:42:42.844Z,98809.12
2017-10-30T14:45:09.182Z,98818.30
2017-10-30T14:47:35.519Z,98805.20
2017-10-30T14:50:01.916Z,98824.47
2017-10-30T14:52:28.452Z,98821.49
2017-10-30T14:54:54.821Z,98839.56
2017-10-30T14:57:21.321Z,98817.70
2017-10-30T14:59:48.064Z,98826.19
2017-10-30T15:02:14.529Z,98829.23
2017-10-30T15:04:41.175Z,98834.87
2017-10-30T15:07:07.593Z,98825.98
2017-10-30T15:09:34.386Z,98834.48
2017-10-30T15:12:00.860Z,98830.05
2017-10-30T15:14:27.287Z,98842.25
2017-10-30T15:16:53.691Z,98840.88
2017-10-30T15:19:20.194Z,98839.16
2017-10-30T15:21:46.803Z,98848.13
2017-10-30T15:24:13.163Z,98852.45
2017-10-30T15:26:39.674Z,98843.13
2017-10-30T15:29:06.109Z,98859.72
2017-10-30T15:31:32.603Z,98861.45
2017-10-30T15:33:59.423Z,98854.86
2017-10-30T15:36:25.915Z,98832.88
2017-10-30T15:38:52.350Z,98862.22
2017-10-30T15:41:19.163Z,98860.20
2017-10-30T15:43:45.601Z,98866.95
2017-10-30T15:46:12.030Z,98872.36
2017-10-30T15:48:38.467Z,98872.80
2017-10-30T15:51:05.148Z,98877.76
2017-10-30T15:53:31.594Z,98879.97
2017-10-30T15:55:58.011Z,98890.47
2017-10-30T15:58:24.748Z,98895.85
2017-10-30T16:00:51.295Z,98901.22
2017-10-30T16:03:17.724Z,98905.13
2017-10-30T16:05:44.170Z,98912.51
2017-10-30T16:08:10.590Z,98911.00
2017-10-30T16:10:37.025Z,98915.70
2017-10-30T16:13:03.460Z,98924.41
2017-10-30T16:15:29.882Z,98926.94
2017-10-30T16:17:56.324Z,98929.95
2017-10-30T16:20:22.764Z,98940.41
2017-10-30T16:22:49.185Z,98943.47
2017-10-30T16:25:16.337Z,98942.55
2017-10-30T16:27:42.760Z,98943.20
2017-10-30T16:30:09.208Z,98946.46
2017-10-30T16:32:35.591Z,98952.77
2017-10-30T16:35:01.986Z,98955.46
2017-10-30T16:37:28.431Z,98952.11
2017-10-30T16:39:54.856Z,98957.87
2017-10-30T16:42:21.995Z,98964.44
2017-10-30T16:44:48.437Z,98971.14
2017-10-30T16:47:14.880Z,98973.05
2017-10-30T16:49:41.322Z,98979.33
2017-10-30T16:52:07.762Z,98979.61
2017-10-30T16:54:34.181Z,98986.19
2017-10-30T16:57:00.625Z,98988.72
2017-10-30T16:59:27.767Z,98987.91
2017-10-30T17:01:54.202Z,98998.77
2017-10-30T17:04:20.640Z,98995.02
2017-10-30T17:06:47.079Z,99007.22
2017-10-30T17:09:13.515Z,99004.80
2017-10-30T17:11:39.954Z,99013.40
2017-10-30T17:14:06.376Z,99023.45
2017-10-30T17:16:33.463Z,99023.30
2017-10-30T17:18:59.860Z,99029.85
2017-10-30T17:21:26.233Z,99029.73
2017-10-30T17:23:52.737Z,99031.08
2017-10-30T17:26:19.174Z,99029.86
2017-10-30T17:28:45.608Z,99037.52
2017-10-30T17:31:11.972Z,99040.19
2017-10-30T17:33:39.118Z,99043.53
2017-10-30T17:36:05.517Z,99046.06
2017-10-30T17:38:31.851Z,99047.41
2017-10-30T17:40:58.293Z,99052.09
2017-10-30T17:43:24.720Z,99047.55
2017-10-30T17:45:51.170Z,99056.52
2017-10-30T17:48:17.584Z,99050.23
2017-10-30T17:50:44.872Z,99051.02
2017-10-30T17:53:11.220Z,99057.70
2017-10-30T17:55:37.651Z,99057.18
2017-10-30T17:58:04.046Z,99056.25
2017-10-30T18:00:30.506Z,99065.09
2017-10-30T18:02:56.927Z,99062.78
2017-10-30T18:05:23.349Z,99061.45
2017-10-30T18:07:50.499Z,99059.31
2017-10-30T18:10:16.831Z,99068.27
2017-10-30T18:12:43.213Z,99069.63
2017-10-30T18:15:09.568Z,99070.95
2017-10-30T18:17:35.970Z,99074.70
2017-10-30T18:20:02.402Z,99075.78
2017-10-30T18:22:28.741Z,99072.71
2017-10-30T18:24:56.033Z,99074.58
2017-10-30T18:27:22.478Z,99081.66
2017-10-30T18:29:48.924Z,99082.31
2017-10-30T18:32:15.360Z,99081.78
2017-10-30T18:34:41.794Z,99083.79
2017-10-30T18:37:08.235Z,99076.43
2017-10-30T18:39:34.595Z,99068.22
2017-10-30T18:42:01.815Z,99078.57
2017-10-30T18:44:28.351Z,99082.70
2017-10-30T18:46:54.785Z,99086.20
2017-10-30T18:49:21.221Z,99088.91
2017-10-30T18:51:47.664Z,99095.84
2017-10-30T18:54:14.091Z,99095.84
2017-10-30T18:56:40.627Z,99102.80
2017-10-30T18:59:07.782Z,99105.18
2017-10-30T19:01:34.221Z,99108.94
2017-10-30T19:04:00.657Z,99114.28
2017-10-30T19:06:27.092Z,99112.56
2017-10-30T19:08:53.460Z,99116.40
2017-10-30T19:11:19.981Z,99119.48
2017-10-30T19:13:46.388Z,99118.12
2017-10-30T19:16:13.641Z,99126.42
2017-10-30T19:18:40.075Z,99110.86
2017-10-30T19:21:06.442Z,99137.23
2017-10-30T19:23:32.779Z,99125.11
2017-10-30T19:25:59.286Z,99134.69
2017-10-30T19:28:25.712Z,99146.20
2017-10-30T19:30:52.259Z,99144.55
2017-10-30T19:33:19.401Z,99144.73
2017-10-30T19:35:45.844Z,99139.78
2017-10-30T19:38:12.270Z,99148.95
2017-10-30T19:40:38.713Z,99148.95
2017-10-30T19:43:05.191Z,99145.64
2017-10-30T19:45:31.688Z,99157.56
2017-10-30T19:47:58.048Z,99159.84
2017-10-30T19:50:25.216Z,99158.09
2017-10-30T19:52:51.595Z,99164.37
2017-10-30T19:55:18.064Z,99175.70
2017-10-30T19:57:44.575Z,99168.79
2017-10-30T20:00:10.953Z,99176.30
2017-10-30T20:02:37.334Z,99172.75
2017-10-30T20:05:03.808Z,99171.27
2017-10-30T20:07:30.964Z,99175.61
2017-10-30T20:09:57.460Z,99175.30
2017-10-30T20:12:23.905Z,99181.58
2017-10-30T20:14:50.331Z,99179.67
2017-10-30T20:17:16.780Z,99185.97
2017-10-30T20:19:43.197Z,99185.67
2017-10-30T20:22:09.639Z,99188.31
2017-10-30T20:24:36.801Z,99190.64
2017-10-30T20:27:03.229Z,99188.08
2017-10-30T20:29:29.581Z,99185.87
2017-10-30T20:31:56.096Z,99190.19
2017-10-30T20:34:22.623Z,99192.52
2017-10-30T20:36:49.086Z,99195.63
2017-10-30T20:39:15.492Z,99195.30
2017-10-30T20:41:42.718Z,99199.02
2017-10-30T20:44:09.193Z,99195.14
2017-10-30T20:46:35.618Z,99200.05
2017-10-30T20:49:02.009Z,99200.25
2017-10-30T20:51:28.424Z,99200.41
2017-10-30T20:53:54.818Z,99195.80
2017-10-30T20:56:21.185Z,99200.06
2017-10-30T20:58:48.407Z,99202.66
2017-10-30T21:01:14.841Z,99211.48
2017-10-30T21:03:41.216Z,99199.16
2017-10-30T21:06:07.716Z,99203.00
2017-10-30T21:08:34.142Z,99204.98
2017-10-30T21:11:00.692Z,99204.24
2017-10-30T21:13:27.124Z,99209.20
2017-10-30T21:15:54.266Z,99208.10
2017-10-30T21:18:20.667Z,99201.13
2017-10-30T21:20:47.136Z,99203.22
2017-10-30T21:23:13.573Z,99211.34
2017-10-30T21:25:40.014Z,99212.70
2017-10-30T21:28:06.457Z,99213.09
2017-10-30T21:30:32.883Z,99216.09
2017-10-30T21:33:00.130Z,99217.86
2017-10-30T21:35:26.576Z,99203.36
2017-10-30T21:37:53.003Z,99216.48
2017-10-30T21:40:19.436Z,99212.59
2017-10-30T21:42:45.878Z,99225.64
2017-10-30T21:45:12.338Z,99220.30
2017-10-30T21:47:38.738Z,99213.09
2017-10-30T21:50:05.888Z,99213.43
2017-10-30T21:52:32.323Z,99204.53
2017-10-30T21:54:58.767Z,99214.63
2017-10-30T21:57:25.196Z,99216.97
2017-10-30T21:59:51.639Z,99219.36
2017-10-30T22:02:18.066Z,99216.49
2017-10-30T22:04:44.499Z,99212.25
2017-10-30T22:07:11.648Z,99215.97
2017-10-30T22:09:38.083Z,99205.23
2017-10-30T22:12:04.455Z,99220.41
2017-10-30T22:14:30.852Z,99221.53
2017-10-30T22:16:57.218Z,99227.16
2017-10-30T22:19:23.730Z,99235.73
2017-10-30T22:21:50.155Z,99237.33
2017-10-30T22:24:17.239Z,99237.80
2017-10-30T22:26:43.748Z,99237.73
2017-10-30T22:29:10.194Z,99236.59
2017-10-30T22:31:36.610Z,99240.63
2017-10-30T22:34:03.070Z,99240.09
2017-10-30T22:36:29.420Z,99248.37
2017-10-30T22:38:55.811Z,99241.11
2017-10-30T22:41:23.066Z,99253.30
2017-10-30T22:43:49.508Z,99255.30
2017-10-30T22:46:15.934Z,99241.52
2017-10-30T22:48:42.379Z,99250.20
2017-10-30T22:51:08.805Z,99243.54
2017-10-30T22:53:35.207Z,99253.44
2017-10-30T22:56:01.674Z,99253.67
2017-10-30T22:58:28.827Z,99262.62
2017-10-30T23:00:55.196Z,99260.78
2017-10-30T23:03:21.705Z,99256.16
2017-10-30T23:05:48.130Z,99263.30
2017-10-30T23:08:14.573Z,99258.34
2017-10-30T23:10:40.932Z,99270.48
2017-10-30T23:13:07.334Z,99266.12
2017-10-30T23:15:34.561Z,99267.37
2017-10-30T23:18:01.022Z,99265.08
2017-10-30T23:20:27.557Z,99246.30
2017-10-30T23:22:53.869Z,99262.48
2017-10-30T23:25:20.323Z,99262.34
2017-10-30T23:27:46.758Z,99239.30
2017-10-30T23:30:13.203Z,99259.76
2017-10-30T23:32:40.353Z,99250.61
2017-10-30T23:35:06.787Z,99262.25
2017-10-30T23:37:33.173Z,99262.23
2017-10-30T23:39:59.614Z,99267.58
2017-10-30T23:42:26.091Z,99235.91
2017-10-30T23:44:52.519Z,99270.81
2017-10-30T23:47:18.953Z,99263.30
2017-10-30T23:49:46.106Z,99273.60
2017-10-30T23:52:12.648Z,99278.09
2017-10-30T23:54:39.018Z,99278.52
2017-10-30T23:57:05.409Z,99282.20
2017-10-30T23:59:31.843Z,99272.55
